sensor_id;sensor_type;location;lat;lon;timestamp;P1;durP1;ratioP1;P2;durP2;ratioP2
76597;SDS011;65486;53.144;18.134;2024-02-15T00:01:54;28.60;;;13.50;;
76597;SDS011;65486;53.144;18.134;2024-02-15T00:04:21;30.80;;;14.40;;
76597;SDS011;65486;53.144;18.134;2024-02-15T00:06:49;31.00;;;13.00;;
76597;SDS011;65486;53.144;18.134;2024-02-15T00:09:25;34.00;;;14.80;;
76597;SDS011;65486;53.144;18.134;2024-02-15T00:11:55;30.40;;;13.60;;
76597;SDS011;65486;53.144;18.134;2024-02-15T00:14:23;33.10;;;14.40;;
76597;SDS011;65486;53.144;18.134;2024-02-15T00:16:51;30.50;;;15.20;;
76597;SDS011;65486;53.144;18.134;2024-02-15T00:19:19;34.10;;;15.80;;
76597;SDS011;65486;53.144;18.134;2024-02-15T00:22:12;30.00;;;15.00;;
76597;SDS011;65486;53.144;18.134;2024-02-15T00:24:44;40.90;;;18.20;;
76597;SDS011;65486;53.144;18.134;2024-02-15T00:27:11;42.00;;;18.40;;
76597;SDS011;65486;53.144;18.134;2024-02-15T00:29:39;39.40;;;15.60;;
76597;SDS011;65486;53.144;18.134;2024-02-15T00:32:08;39.50;;;17.70;;
76597;SDS011;65486;53.144;18.134;2024-02-15T00:34:41;36.90;;;16.90;;
76597;SDS011;65486;53.144;18.134;2024-02-15T00:37:08;44.30;;;18.90;;
76597;SDS011;65486;53.144;18.134;2024-02-15T00:39:36;34.70;;;17.10;;
76597;SDS011;65486;53.144;18.134;2024-02-15T00:42:13;31.20;;;12.90;;
76597;SDS011;65486;53.144;18.134;2024-02-15T00:44:42;35.10;;;15.30;;
76597;SDS011;65486;53.144;18.134;2024-02-15T00:47:13;32.90;;;14.60;;
76597;SDS011;65486;53.144;18.134;2024-02-15T00:49:43;32.80;;;14.70;;
76597;SDS011;65486;53.144;18.134;2024-02-15T00:52:12;33.80;;;14.60;;
76597;SDS011;65486;53.144;18.134;2024-02-15T00:54:39;34.90;;;15.30;;
76597;SDS011;65486;53.144;18.134;2024-02-15T00:57:06;39.50;;;16.40;;
76597;SDS011;65486;53.144;18.134;2024-02-15T00:59:36;32.40;;;14.10;;
76597;SDS011;65486;53.144;18.134;2024-02-15T01:02:04;44.00;;;18.10;;
76597;SDS011;65486;53.144;18.134;2024-02-15T01:04:35;42.60;;;18.20;;
76597;SDS011;65486;53.144;18.134;2024-02-15T01:07:02;40.60;;;17.30;;
76597;SDS011;65486;53.144;18.134;2024-02-15T01:09:31;38.90;;;17.50;;
76597;SDS011;65486;53.144;18.134;2024-02-15T01:12:00;42.60;;;18.60;;
76597;SDS011;65486;53.144;18.134;2024-02-15T01:14:31;31.00;;;13.60;;
76597;SDS011;65486;53.144;18.134;2024-02-15T01:17:01;26.90;;;12.10;;
76597;SDS011;65486;53.144;18.134;2024-02-15T01:19:32;31.30;;;14.40;;
76597;SDS011;65486;53.144;18.134;2024-02-15T01:22:03;34.10;;;15.30;;
76597;SDS011;65486;53.144;18.134;2024-02-15T01:24:34;35.60;;;15.50;;
76597;SDS011;65486;53.144;18.134;2024-02-15T01:30:04;31.80;;;13.40;;
76597;SDS011;65486;53.144;18.134;2024-02-15T01:32:37;31.20;;;13.60;;
76597;SDS011;65486;53.144;18.134;2024-02-15T01:35:10;37.90;;;15.40;;
76597;SDS011;65486;53.144;18.134;2024-02-15T01:37:38;35.10;;;15.90;;
76597;SDS011;65486;53.144;18.134;2024-02-15T01:40:09;37.90;;;16.10;;
76597;SDS011;65486;53.144;18.134;2024-02-15T01:42:39;33.20;;;15.10;;
76597;SDS011;65486;53.144;18.134;2024-02-15T01:45:08;29.30;;;12.90;;
76597;SDS011;65486;53.144;18.134;2024-02-15T01:47:38;34.30;;;14.80;;
76597;SDS011;65486;53.144;18.134;2024-02-15T01:50:10;35.50;;;15.30;;
76597;SDS011;65486;53.144;18.134;2024-02-15T01:52:39;33.50;;;15.50;;
76597;SDS011;65486;53.144;18.134;2024-02-15T01:55:07;28.90;;;13.70;;
76597;SDS011;65486;53.144;18.134;2024-02-15T01:57:37;29.50;;;12.90;;
76597;SDS011;65486;53.144;18.134;2024-02-15T02:00:25;33.70;;;14.90;;
76597;SDS011;65486;53.144;18.134;2024-02-15T02:02:59;29.40;;;13.80;;
76597;SDS011;65486;53.144;18.134;2024-02-15T02:05:29;25.90;;;11.50;;
76597;SDS011;65486;53.144;18.134;2024-02-15T02:08:04;30.80;;;13.60;;
76597;SDS011;65486;53.144;18.134;2024-02-15T02:10:50;33.30;;;15.60;;
76597;SDS011;65486;53.144;18.134;2024-02-15T02:16:27;26.60;;;11.80;;
76597;SDS011;65486;53.144;18.134;2024-02-15T02:18:55;31.40;;;14.30;;
76597;SDS011;65486;53.144;18.134;2024-02-15T02:21:25;30.80;;;14.10;;
76597;SDS011;65486;53.144;18.134;2024-02-15T02:23:56;28.20;;;13.10;;
76597;SDS011;65486;53.144;18.134;2024-02-15T02:26:24;24.60;;;12.10;;
76597;SDS011;65486;53.144;18.134;2024-02-15T02:28:57;30.90;;;14.70;;
76597;SDS011;65486;53.144;18.134;2024-02-15T02:31:33;27.60;;;13.10;;
76597;SDS011;65486;53.144;18.134;2024-02-15T02:34:06;27.30;;;12.50;;
76597;SDS011;65486;53.144;18.134;2024-02-15T02:36:58;33.00;;;15.90;;
76597;SDS011;65486;53.144;18.134;2024-02-15T02:39:35;31.20;;;14.20;;
76597;SDS011;65486;53.144;18.134;2024-02-15T02:42:03;33.60;;;15.60;;
76597;SDS011;65486;53.144;18.134;2024-02-15T02:44:31;26.90;;;11.60;;
76597;SDS011;65486;53.144;18.134;2024-02-15T02:46:58;31.00;;;13.60;;
76597;SDS011;65486;53.144;18.134;2024-02-15T02:49:25;33.50;;;15.50;;
76597;SDS011;65486;53.144;18.134;2024-02-15T02:51:52;33.20;;;15.50;;
76597;SDS011;65486;53.144;18.134;2024-02-15T02:54:20;32.20;;;14.70;;
76597;SDS011;65486;53.144;18.134;2024-02-15T02:56:49;33.30;;;14.40;;
76597;SDS011;65486;53.144;18.134;2024-02-15T02:59:22;28.70;;;13.30;;
76597;SDS011;65486;53.144;18.134;2024-02-15T03:01:50;23.20;;;10.20;;
76597;SDS011;65486;53.144;18.134;2024-02-15T03:04:17;36.90;;;15.90;;
76597;SDS011;65486;53.144;18.134;2024-02-15T03:06:44;33.10;;;15.20;;
76597;SDS011;65486;53.144;18.134;2024-02-15T03:09:20;32.50;;;14.20;;
76597;SDS011;65486;53.144;18.134;2024-02-15T03:11:49;31.70;;;14.60;;
76597;SDS011;65486;53.144;18.134;2024-02-15T03:14:21;24.00;;;11.10;;
76597;SDS011;65486;53.144;18.134;2024-02-15T03:16:48;26.50;;;12.50;;
76597;SDS011;65486;53.144;18.134;2024-02-15T03:19:15;29.60;;;13.40;;
76597;SDS011;65486;53.144;18.134;2024-02-15T03:21:43;30.40;;;13.60;;
76597;SDS011;65486;53.144;18.134;2024-02-15T03:24:13;24.70;;;12.00;;
76597;SDS011;65486;53.144;18.134;2024-02-15T03:26:41;31.70;;;14.80;;
76597;SDS011;65486;53.144;18.134;2024-02-15T03:29:11;32.40;;;15.80;;
76597;SDS011;65486;53.144;18.134;2024-02-15T03:31:40;30.50;;;14.80;;
76597;SDS011;65486;53.144;18.134;2024-02-15T03:34:07;30.50;;;14.50;;
76597;SDS011;65486;53.144;18.134;2024-02-15T03:36:37;28.90;;;13.60;;
76597;SDS011;65486;53.144;18.134;2024-02-15T03:39:05;32.70;;;15.00;;
76597;SDS011;65486;53.144;18.134;2024-02-15T03:41:33;25.70;;;12.50;;
76597;SDS011;65486;53.144;18.134;2024-02-15T03:44:04;31.00;;;14.20;;
76597;SDS011;65486;53.144;18.134;2024-02-15T03:46:32;31.00;;;14.60;;
76597;SDS011;65486;53.144;18.134;2024-02-15T03:49:00;28.10;;;12.70;;
76597;SDS011;65486;53.144;18.134;2024-02-15T03:51:31;37.90;;;15.80;;
76597;SDS011;65486;53.144;18.134;2024-02-15T03:54:00;27.10;;;11.70;;
76597;SDS011;65486;53.144;18.134;2024-02-15T03:56:34;31.40;;;13.50;;
76597;SDS011;65486;53.144;18.134;2024-02-15T03:59:03;32.40;;;14.80;;
76597;SDS011;65486;53.144;18.134;2024-02-15T04:01:32;27.60;;;12.00;;
76597;SDS011;65486;53.144;18.134;2024-02-15T04:04:02;29.70;;;13.30;;
76597;SDS011;65486;53.144;18.134;2024-02-15T04:06:32;24.30;;;11.80;;
76597;SDS011;65486;53.144;18.134;2024-02-15T04:09:03;25.20;;;11.80;;
76597;SDS011;65486;53.144;18.134;2024-02-15T04:11:31;25.70;;;11.50;;
76597;SDS011;65486;53.144;18.134;2024-02-15T04:14:00;22.80;;;10.60;;
76597;SDS011;65486;53.144;18.134;2024-02-15T04:16:29;32.80;;;14.00;;
76597;SDS011;65486;53.144;18.134;2024-02-15T04:18:58;20.50;;;9.70;;
76597;SDS011;65486;53.144;18.134;2024-02-15T04:21:32;28.80;;;13.30;;
76597;SDS011;65486;53.144;18.134;2024-02-15T04:23:59;31.20;;;13.80;;
76597;SDS011;65486;53.144;18.134;2024-02-15T04:26:35;25.70;;;11.20;;
76597;SDS011;65486;53.144;18.134;2024-02-15T04:29:05;30.10;;;13.90;;
76597;SDS011;65486;53.144;18.134;2024-02-15T04:31:35;28.70;;;13.00;;
76597;SDS011;65486;53.144;18.134;2024-02-15T04:34:05;26.40;;;13.10;;
76597;SDS011;65486;53.144;18.134;2024-02-15T04:36:37;32.00;;;15.00;;
76597;SDS011;65486;53.144;18.134;2024-02-15T04:39:08;27.60;;;12.10;;
76597;SDS011;65486;53.144;18.134;2024-02-15T04:41:40;25.20;;;11.50;;
76597;SDS011;65486;53.144;18.134;2024-02-15T04:44:09;23.90;;;11.40;;
76597;SDS011;65486;53.144;18.134;2024-02-15T04:46:38;31.20;;;14.60;;
76597;SDS011;65486;53.144;18.134;2024-02-15T04:49:08;28.90;;;13.20;;
76597;SDS011;65486;53.144;18.134;2024-02-15T04:51:37;25.00;;;12.00;;
76597;SDS011;65486;53.144;18.134;2024-02-15T04:54:05;28.90;;;13.50;;
76597;SDS011;65486;53.144;18.134;2024-02-15T04:56:34;29.80;;;14.00;;
76597;SDS011;65486;53.144;18.134;2024-02-15T04:59:04;33.90;;;14.20;;
76597;SDS011;65486;53.144;18.134;2024-02-15T05:01:35;28.30;;;13.80;;
76597;SDS011;65486;53.144;18.134;2024-02-15T05:04:02;29.60;;;13.20;;
76597;SDS011;65486;53.144;18.134;2024-02-15T05:06:30;27.90;;;13.30;;
76597;SDS011;65486;53.144;18.134;2024-02-15T05:08:58;32.50;;;16.20;;
76597;SDS011;65486;53.144;18.134;2024-02-15T05:11:35;28.10;;;14.10;;
76597;SDS011;65486;53.144;18.134;2024-02-15T05:14:03;33.50;;;15.20;;
76597;SDS011;65486;53.144;18.134;2024-02-15T05:16:34;30.90;;;14.00;;
76597;SDS011;65486;53.144;18.134;2024-02-15T05:19:02;35.80;;;15.70;;
76597;SDS011;65486;53.144;18.134;2024-02-15T05:21:30;42.80;;;18.80;;
76597;SDS011;65486;53.144;18.134;2024-02-15T05:23:59;36.40;;;16.90;;
76597;SDS011;65486;53.144;18.134;2024-02-15T05:26:29;35.60;;;16.90;;
76597;SDS011;65486;53.144;18.134;2024-02-15T05:29:05;37.50;;;18.50;;
76597;SDS011;65486;53.144;18.134;2024-02-15T05:31:33;30.00;;;14.70;;
76597;SDS011;65486;53.144;18.134;2024-02-15T05:34:02;28.20;;;13.40;;
76597;SDS011;65486;53.144;18.134;2024-02-15T05:36:33;36.80;;;17.30;;
76597;SDS011;65486;53.144;18.134;2024-02-15T05:39:04;35.70;;;18.10;;
76597;SDS011;65486;53.144;18.134;2024-02-15T05:41:34;31.80;;;15.20;;
76597;SDS011;65486;53.144;18.134;2024-02-15T05:44:05;35.10;;;16.20;;
76597;SDS011;65486;53.144;18.134;2024-02-15T05:46:52;36.30;;;17.90;;
76597;SDS011;65486;53.144;18.134;2024-02-15T05:50:03;40.80;;;20.60;;
76597;SDS011;65486;53.144;18.134;2024-02-15T05:52:34;38.40;;;19.70;;
76597;SDS011;65486;53.144;18.134;2024-02-15T05:55:02;28.90;;;13.90;;
76597;SDS011;65486;53.144;18.134;2024-02-15T05:57:30;31.20;;;14.80;;
76597;SDS011;65486;53.144;18.134;2024-02-15T06:03:12;29.80;;;13.60;;
76597;SDS011;65486;53.144;18.134;2024-02-15T06:06:08;30.00;;;15.10;;
76597;SDS011;65486;53.144;18.134;2024-02-15T06:08:49;24.30;;;12.00;;
76597;SDS011;65486;53.144;18.134;2024-02-15T06:12:07;33.70;;;15.60;;
76597;SDS011;65486;53.144;18.134;2024-02-15T06:14:39;34.20;;;15.50;;
76597;SDS011;65486;53.144;18.134;2024-02-15T06:17:08;35.30;;;17.10;;
76597;SDS011;65486;53.144;18.134;2024-02-15T06:19:35;38.40;;;17.80;;
76597;SDS011;65486;53.144;18.134;2024-02-15T06:22:02;36.90;;;18.50;;
76597;SDS011;65486;53.144;18.134;2024-02-15T06:24:31;33.50;;;16.80;;
76597;SDS011;65486;53.144;18.134;2024-02-15T06:26:58;39.30;;;17.80;;
76597;SDS011;65486;53.144;18.134;2024-02-15T06:29:32;31.00;;;15.40;;
76597;SDS011;65486;53.144;18.134;2024-02-15T06:32:18;32.20;;;16.70;;
76597;SDS011;65486;53.144;18.134;2024-02-15T06:35:22;36.40;;;18.20;;
76597;SDS011;65486;53.144;18.134;2024-02-15T06:38:08;35.20;;;17.30;;
76597;SDS011;65486;53.144;18.134;2024-02-15T06:41:05;39.00;;;17.30;;
76597;SDS011;65486;53.144;18.134;2024-02-15T06:43:40;38.50;;;17.50;;
76597;SDS011;65486;53.144;18.134;2024-02-15T06:46:08;34.10;;;17.20;;
76597;SDS011;65486;53.144;18.134;2024-02-15T06:48:50;29.60;;;15.10;;
76597;SDS011;65486;53.144;18.134;2024-02-15T06:51:17;30.50;;;15.10;;
76597;SDS011;65486;53.144;18.134;2024-02-15T06:53:57;34.10;;;17.30;;
76597;SDS011;65486;53.144;18.134;2024-02-15T06:56:25;36.20;;;17.70;;
76597;SDS011;65486;53.144;18.134;2024-02-15T06:58:53;38.90;;;19.50;;
76597;SDS011;65486;53.144;18.134;2024-02-15T07:01:24;31.00;;;16.30;;
76597;SDS011;65486;53.144;18.134;2024-02-15T07:03:52;37.30;;;19.90;;
76597;SDS011;65486;53.144;18.134;2024-02-15T07:06:20;34.30;;;17.30;;
76597;SDS011;65486;53.144;18.134;2024-02-15T07:08:51;27.40;;;15.50;;
76597;SDS011;65486;53.144;18.134;2024-02-15T07:11:33;32.60;;;17.80;;
76597;SDS011;65486;53.144;18.134;2024-02-15T07:14:23;26.30;;;14.20;;
76597;SDS011;65486;53.144;18.134;2024-02-15T07:16:53;36.90;;;18.80;;
76597;SDS011;65486;53.144;18.134;2024-02-15T07:19:23;32.10;;;17.60;;
76597;SDS011;65486;53.144;18.134;2024-02-15T07:21:56;29.90;;;16.70;;
76597;SDS011;65486;53.144;18.134;2024-02-15T07:24:37;37.30;;;22.00;;
76597;SDS011;65486;53.144;18.134;2024-02-15T07:27:07;39.90;;;21.40;;
76597;SDS011;65486;53.144;18.134;2024-02-15T07:29:41;31.00;;;16.10;;
76597;SDS011;65486;53.144;18.134;2024-02-15T07:32:11;38.20;;;19.70;;
76597;SDS011;65486;53.144;18.134;2024-02-15T07:34:41;28.40;;;15.60;;
76597;SDS011;65486;53.144;18.134;2024-02-15T07:37:21;36.50;;;19.80;;
76597;SDS011;65486;53.144;18.134;2024-02-15T07:39:54;36.80;;;20.40;;
76597;SDS011;65486;53.144;18.134;2024-02-15T07:42:25;34.40;;;16.80;;
76597;SDS011;65486;53.144;18.134;2024-02-15T07:44:53;33.50;;;16.80;;
76597;SDS011;65486;53.144;18.134;2024-02-15T07:47:22;34.60;;;19.30;;
76597;SDS011;65486;53.144;18.134;2024-02-15T07:50:02;33.90;;;18.10;;
76597;SDS011;65486;53.144;18.134;2024-02-15T07:52:41;36.60;;;19.80;;
76597;SDS011;65486;53.144;18.134;2024-02-15T07:55:32;39.10;;;20.70;;
76597;SDS011;65486;53.144;18.134;2024-02-15T07:58:08;32.10;;;16.70;;
76597;SDS011;65486;53.144;18.134;2024-02-15T08:00:35;26.70;;;14.70;;
76597;SDS011;65486;53.144;18.134;2024-02-15T08:03:04;37.60;;;20.60;;
76597;SDS011;65486;53.144;18.134;2024-02-15T08:05:31;30.30;;;16.20;;
76597;SDS011;65486;53.144;18.134;2024-02-15T08:08:00;40.90;;;21.20;;
76597;SDS011;65486;53.144;18.134;2024-02-15T08:10:53;33.50;;;18.10;;
76597;SDS011;65486;53.144;18.134;2024-02-15T08:13:26;37.30;;;19.50;;
76597;SDS011;65486;53.144;18.134;2024-02-15T08:16:18;39.40;;;21.70;;
76597;SDS011;65486;53.144;18.134;2024-02-15T08:19:17;35.80;;;19.30;;
76597;SDS011;65486;53.144;18.134;2024-02-15T08:21:57;33.20;;;17.60;;
76597;SDS011;65486;53.144;18.134;2024-02-15T08:24:54;31.70;;;17.60;;
76597;SDS011;65486;53.144;18.134;2024-02-15T08:27:22;41.30;;;22.60;;
76597;SDS011;65486;53.144;18.134;2024-02-15T08:29:55;38.00;;;19.20;;
76597;SDS011;65486;53.144;18.134;2024-02-15T08:32:24;44.80;;;22.20;;
76597;SDS011;65486;53.144;18.134;2024-02-15T08:34:59;31.50;;;15.80;;
76597;SDS011;65486;53.144;18.134;2024-02-15T08:37:32;37.40;;;19.60;;
76597;SDS011;65486;53.144;18.134;2024-02-15T08:40:05;34.70;;;19.10;;
76597;SDS011;65486;53.144;18.134;2024-02-15T08:43:10;29.40;;;16.50;;
76597;SDS011;65486;53.144;18.134;2024-02-15T08:45:39;32.60;;;17.20;;
76597;SDS011;65486;53.144;18.134;2024-02-15T08:48:07;29.00;;;15.70;;
76597;SDS011;65486;53.144;18.134;2024-02-15T08:50:34;30.50;;;16.10;;
76597;SDS011;65486;53.144;18.134;2024-02-15T08:53:03;44.90;;;22.50;;
76597;SDS011;65486;53.144;18.134;2024-02-15T08:55:35;46.90;;;21.50;;
76597;SDS011;65486;53.144;18.134;2024-02-15T08:58:05;37.20;;;19.90;;
76597;SDS011;65486;53.144;18.134;2024-02-15T09:00:38;34.60;;;17.30;;
76597;SDS011;65486;53.144;18.134;2024-02-15T09:03:13;30.60;;;15.50;;
76597;SDS011;65486;53.144;18.134;2024-02-15T09:05:45;38.10;;;20.60;;
76597;SDS011;65486;53.144;18.134;2024-02-15T09:08:15;35.50;;;18.60;;
76597;SDS011;65486;53.144;18.134;2024-02-15T09:10:47;39.30;;;19.80;;
76597;SDS011;65486;53.144;18.134;2024-02-15T09:13:17;39.60;;;21.10;;
76597;SDS011;65486;53.144;18.134;2024-02-15T09:15:59;37.70;;;20.10;;
76597;SDS011;65486;53.144;18.134;2024-02-15T09:18:34;32.10;;;17.70;;
76597;SDS011;65486;53.144;18.134;2024-02-15T09:21:02;32.80;;;16.20;;
76597;SDS011;65486;53.144;18.134;2024-02-15T09:23:40;32.20;;;17.70;;
76597;SDS011;65486;53.144;18.134;2024-02-15T09:26:11;40.20;;;19.50;;
76597;SDS011;65486;53.144;18.134;2024-02-15T09:28:49;34.80;;;16.70;;
76597;SDS011;65486;53.144;18.134;2024-02-15T09:31:18;31.10;;;15.30;;
76597;SDS011;65486;53.144;18.134;2024-02-15T09:33:50;36.20;;;17.30;;
76597;SDS011;65486;53.144;18.134;2024-02-15T09:36:19;29.60;;;13.80;;
76597;SDS011;65486;53.144;18.134;2024-02-15T09:39:06;34.90;;;17.40;;
76597;SDS011;65486;53.144;18.134;2024-02-15T09:41:37;21.90;;;10.70;;
76597;SDS011;65486;53.144;18.134;2024-02-15T09:44:11;34.70;;;17.50;;
76597;SDS011;65486;53.144;18.134;2024-02-15T09:46:45;34.60;;;18.00;;
76597;SDS011;65486;53.144;18.134;2024-02-15T09:49:21;35.60;;;16.90;;
76597;SDS011;65486;53.144;18.134;2024-02-15T09:51:50;38.90;;;19.10;;
76597;SDS011;65486;53.144;18.134;2024-02-15T09:54:19;38.20;;;19.10;;
76597;SDS011;65486;53.144;18.134;2024-02-15T09:56:53;31.50;;;16.20;;
76597;SDS011;65486;53.144;18.134;2024-02-15T09:59:31;32.10;;;17.20;;
76597;SDS011;65486;53.144;18.134;2024-02-15T10:02:03;30.80;;;15.20;;
76597;SDS011;65486;53.144;18.134;2024-02-15T10:04:40;33.60;;;16.60;;
76597;SDS011;65486;53.144;18.134;2024-02-15T10:07:08;32.80;;;15.30;;
76597;SDS011;65486;53.144;18.134;2024-02-15T10:09:37;37.60;;;18.60;;
76597;SDS011;65486;53.144;18.134;2024-02-15T10:12:06;32.60;;;17.80;;
76597;SDS011;65486;53.144;18.134;2024-02-15T10:14:33;32.70;;;15.70;;
76597;SDS011;65486;53.144;18.134;2024-02-15T10:17:06;34.30;;;17.50;;
76597;SDS011;65486;53.144;18.134;2024-02-15T10:20:02;32.30;;;16.90;;
76597;SDS011;65486;53.144;18.134;2024-02-15T10:22:33;33.80;;;17.10;;
76597;SDS011;65486;53.144;18.134;2024-02-15T10:25:14;33.50;;;17.60;;
76597;SDS011;65486;53.144;18.134;2024-02-15T10:27:41;31.40;;;15.00;;
76597;SDS011;65486;53.144;18.134;2024-02-15T10:30:16;36.30;;;16.50;;
76597;SDS011;65486;53.144;18.134;2024-02-15T10:32:45;35.90;;;18.50;;
76597;SDS011;65486;53.144;18.134;2024-02-15T10:35:19;40.20;;;19.40;;
76597;SDS011;65486;53.144;18.134;2024-02-15T10:37:49;36.50;;;19.80;;
76597;SDS011;65486;53.144;18.134;2024-02-15T10:40:22;26.60;;;13.40;;
76597;SDS011;65486;53.144;18.134;2024-02-15T10:42:52;33.70;;;17.70;;
76597;SDS011;65486;53.144;18.134;2024-02-15T10:45:24;36.80;;;19.30;;
76597;SDS011;65486;53.144;18.134;2024-02-15T10:47:54;34.50;;;17.90;;
76597;SDS011;65486;53.144;18.134;2024-02-15T10:50:30;34.90;;;16.70;;
76597;SDS011;65486;53.144;18.134;2024-02-15T10:52:58;35.40;;;17.50;;
76597;SDS011;65486;53.144;18.134;2024-02-15T10:58:11;30.10;;;14.60;;
76597;SDS011;65486;53.144;18.134;2024-02-15T11:00:43;36.70;;;18.40;;
76597;SDS011;65486;53.144;18.134;2024-02-15T11:03:15;37.60;;;18.40;;
76597;SDS011;65486;53.144;18.134;2024-02-15T11:05:51;33.80;;;15.50;;
76597;SDS011;65486;53.144;18.134;2024-02-15T11:08:23;32.80;;;15.80;;
76597;SDS011;65486;53.144;18.134;2024-02-15T11:10:57;30.00;;;15.90;;
76597;SDS011;65486;53.144;18.134;2024-02-15T11:13:37;36.40;;;17.60;;
76597;SDS011;65486;53.144;18.134;2024-02-15T11:16:10;27.70;;;13.20;;
76597;SDS011;65486;53.144;18.134;2024-02-15T11:24:36;34.70;;;16.00;;
76597;SDS011;65486;53.144;18.134;2024-02-15T11:27:30;35.40;;;18.10;;
76597;SDS011;65486;53.144;18.134;2024-02-15T11:34:41;25.60;;;14.30;;
76597;SDS011;65486;53.144;18.134;2024-02-15T11:43:08;33.50;;;19.70;;
76597;SDS011;65486;53.144;18.134;2024-02-15T11:45:37;33.70;;;17.20;;
76597;SDS011;65486;53.144;18.134;2024-02-15T11:54:10;31.30;;;15.20;;
76597;SDS011;65486;53.144;18.134;2024-02-15T11:56:54;35.20;;;18.10;;
76597;SDS011;65486;53.144;18.134;2024-02-15T12:04:14;26.90;;;14.20;;
76597;SDS011;65486;53.144;18.134;2024-02-15T12:07:02;23.50;;;14.40;;
76597;SDS011;65486;53.144;18.134;2024-02-15T12:10:20;33.40;;;17.00;;
76597;SDS011;65486;53.144;18.134;2024-02-15T12:13:18;25.80;;;13.90;;
76597;SDS011;65486;53.144;18.134;2024-02-15T12:16:08;31.80;;;17.50;;
76597;SDS011;65486;53.144;18.134;2024-02-15T12:18:59;39.30;;;18.30;;
76597;SDS011;65486;53.144;18.134;2024-02-15T12:21:34;29.70;;;17.30;;
76597;SDS011;65486;53.144;18.134;2024-02-15T12:24:03;37.00;;;18.50;;
76597;SDS011;65486;53.144;18.134;2024-02-15T12:27:07;43.20;;;22.80;;
76597;SDS011;65486;53.144;18.134;2024-02-15T12:29:36;35.50;;;19.10;;
76597;SDS011;65486;53.144;18.134;2024-02-15T12:32:09;39.40;;;21.20;;
76597;SDS011;65486;53.144;18.134;2024-02-15T12:34:39;40.30;;;21.80;;
76597;SDS011;65486;53.144;18.134;2024-02-15T12:37:07;43.70;;;21.50;;
76597;SDS011;65486;53.144;18.134;2024-02-15T12:39:41;41.20;;;21.80;;
76597;SDS011;65486;53.144;18.134;2024-02-15T12:42:18;41.80;;;21.00;;
76597;SDS011;65486;53.144;18.134;2024-02-15T12:44:52;48.00;;;26.00;;
76597;SDS011;65486;53.144;18.134;2024-02-15T12:47:21;44.90;;;24.30;;
76597;SDS011;65486;53.144;18.134;2024-02-15T12:49:51;43.90;;;22.30;;
76597;SDS011;65486;53.144;18.134;2024-02-15T12:52:37;39.90;;;21.30;;
76597;SDS011;65486;53.144;18.134;2024-02-15T12:55:12;41.40;;;21.50;;
76597;SDS011;65486;53.144;18.134;2024-02-15T12:58:14;40.70;;;21.00;;
76597;SDS011;65486;53.144;18.134;2024-02-15T13:00:44;38.40;;;20.20;;
76597;SDS011;65486;53.144;18.134;2024-02-15T13:03:13;39.00;;;21.20;;
76597;SDS011;65486;53.144;18.134;2024-02-15T13:05:43;42.30;;;23.10;;
76597;SDS011;65486;53.144;18.134;2024-02-15T13:08:11;43.80;;;23.60;;
76597;SDS011;65486;53.144;18.134;2024-02-15T13:10:54;43.00;;;23.00;;
76597;SDS011;65486;53.144;18.134;2024-02-15T13:13:37;35.10;;;19.30;;
76597;SDS011;65486;53.144;18.134;2024-02-15T13:16:04;47.60;;;24.30;;
76597;SDS011;65486;53.144;18.134;2024-02-15T13:18:34;39.20;;;22.40;;
76597;SDS011;65486;53.144;18.134;2024-02-15T13:21:01;38.70;;;20.90;;
76597;SDS011;65486;53.144;18.134;2024-02-15T13:23:32;38.70;;;21.10;;
76597;SDS011;65486;53.144;18.134;2024-02-15T13:26:02;40.30;;;22.40;;
76597;SDS011;65486;53.144;18.134;2024-02-15T13:28:33;43.50;;;24.80;;
76597;SDS011;65486;53.144;18.134;2024-02-15T13:31:03;35.70;;;20.40;;
76597;SDS011;65486;53.144;18.134;2024-02-15T13:33:30;39.00;;;21.60;;
76597;SDS011;65486;53.144;18.134;2024-02-15T13:36:04;38.80;;;22.00;;
76597;SDS011;65486;53.144;18.134;2024-02-15T13:38:37;35.90;;;19.40;;
76597;SDS011;65486;53.144;18.134;2024-02-15T13:41:07;38.50;;;21.60;;
76597;SDS011;65486;53.144;18.134;2024-02-15T13:43:40;30.60;;;16.90;;
76597;SDS011;65486;53.144;18.134;2024-02-15T13:46:09;35.10;;;19.80;;
76597;SDS011;65486;53.144;18.134;2024-02-15T13:48:46;33.60;;;20.00;;
76597;SDS011;65486;53.144;18.134;2024-02-15T13:51:15;38.70;;;20.10;;
76597;SDS011;65486;53.144;18.134;2024-02-15T13:53:43;34.70;;;21.10;;
76597;SDS011;65486;53.144;18.134;2024-02-15T13:56:12;41.40;;;22.10;;
76597;SDS011;65486;53.144;18.134;2024-02-15T13:58:41;34.30;;;19.50;;
76597;SDS011;65486;53.144;18.134;2024-02-15T14:01:08;40.70;;;21.70;;
76597;SDS011;65486;53.144;18.134;2024-02-15T14:03:35;29.80;;;17.20;;
76597;SDS011;65486;53.144;18.134;2024-02-15T14:06:04;32.60;;;16.70;;
76597;SDS011;65486;53.144;18.134;2024-02-15T14:08:31;33.30;;;19.30;;
76597;SDS011;65486;53.144;18.134;2024-02-15T14:10:58;36.90;;;19.30;;
76597;SDS011;65486;53.144;18.134;2024-02-15T14:13:53;38.10;;;21.50;;
76597;SDS011;65486;53.144;18.134;2024-02-15T14:22:41;35.70;;;18.80;;
76597;SDS011;65486;53.144;18.134;2024-02-15T14:26:12;33.50;;;17.30;;
76597;SDS011;65486;53.144;18.134;2024-02-15T14:28:44;29.70;;;15.50;;
76597;SDS011;65486;53.144;18.134;2024-02-15T14:31:17;37.50;;;19.30;;
76597;SDS011;65486;53.144;18.134;2024-02-15T14:34:31;31.20;;;16.80;;
76597;SDS011;65486;53.144;18.134;2024-02-15T14:36:59;31.30;;;17.20;;
76597;SDS011;65486;53.144;18.134;2024-02-15T14:39:29;37.60;;;20.60;;
76597;SDS011;65486;53.144;18.134;2024-02-15T14:41:57;37.50;;;20.40;;
76597;SDS011;65486;53.144;18.134;2024-02-15T14:44:25;38.90;;;20.70;;
76597;SDS011;65486;53.144;18.134;2024-02-15T14:46:53;35.80;;;20.10;;
76597;SDS011;65486;53.144;18.134;2024-02-15T14:49:23;28.60;;;15.10;;
76597;SDS011;65486;53.144;18.134;2024-02-15T14:52:05;33.40;;;17.50;;
76597;SDS011;65486;53.144;18.134;2024-02-15T14:54:41;31.00;;;17.70;;
76597;SDS011;65486;53.144;18.134;2024-02-15T14:57:08;37.00;;;20.10;;
76597;SDS011;65486;53.144;18.134;2024-02-15T14:59:35;27.00;;;14.90;;
76597;SDS011;65486;53.144;18.134;2024-02-15T15:02:09;30.80;;;16.60;;
76597;SDS011;65486;53.144;18.134;2024-02-15T15:04:37;33.70;;;18.80;;
76597;SDS011;65486;53.144;18.134;2024-02-15T15:07:23;36.40;;;19.50;;
76597;SDS011;65486;53.144;18.134;2024-02-15T15:10:10;38.40;;;18.90;;
76597;SDS011;65486;53.144;18.134;2024-02-15T15:12:57;36.30;;;19.40;;
76597;SDS011;65486;53.144;18.134;2024-02-15T15:15:35;41.80;;;22.00;;
76597;SDS011;65486;53.144;18.134;2024-02-15T15:18:06;38.40;;;19.80;;
76597;SDS011;65486;53.144;18.134;2024-02-15T15:20:36;41.90;;;21.70;;
76597;SDS011;65486;53.144;18.134;2024-02-15T15:23:05;40.90;;;21.20;;
76597;SDS011;65486;53.144;18.134;2024-02-15T15:25:33;42.00;;;22.70;;
76597;SDS011;65486;53.144;18.134;2024-02-15T15:28:00;43.40;;;22.80;;
76597;SDS011;65486;53.144;18.134;2024-02-15T15:30:27;40.60;;;20.70;;